Curacao Island, Curacao

5:04 PM AST on June 24, 2017 (GMT -0400)
Willemstad-Hato International | | Change Station

Elev 220 ft 12.20 °N, 68.97 °W | Updated 1 hour ago

Partly Cloudy
Partly Cloudy
88 °F
Feels Like 98 °F
N
15
Wind Variable Wind from East

Today
High -- | Low -- °F
--% Chance of Precip.
Yesterday
High -- | Low -- °F
Precip. -- in
Pressure 29.86 in
Visibility 6.2 miles
Clouds Few 2100 ft
Heat Index 98 °F
Dew Point 75 °F
Humidity 66%
Rainfall 0.00 in
Snow Depth Not available.
6:13 AM 7:03 PM
New Moon, 1% visible
METAR TNCC 242000Z 10013KT 9999 FEW021 31/24 Q1011 NOSIG
Pressure 29.86 in
Visibility 6.2 miles
Clouds Few 2100 ft
Heat Index 98 °F
Dew Point 75 °F
Humidity 66%
Rainfall 0.00 in
Snow Depth Not available.
6:13 AM 7:03 PM
New Moon, 1% visible
METAR TNCC 242000Z 10013KT 9999 FEW021 31/24 Q1011 NOSIG

Get Severe Weather Alerts

Thanks for signing up!

Be on the lookout for a verification email in your inbox.

You'll start receiving the daily forecast at 6 AM.

×

10-Day Weather Forecast

No radar image for this location.
×

Almanac

Astronomy

Jun. 24, 2017 Rise Set
Actual Time
Civil Twilight
Nautical Twilight
Astronomical Twilight
Moon
Length of Visible Light
Length of Day
Tomorrow will be .
, % of the Moon is Illuminated

Today's Extremes

Country Highs Country Lows

Community

WunderPhotos

Category 6

Welcome to Category 6. This is the collective home for Weather Underground's featured writeups by Dr. Jeff Masters (right), Bob Henson (left), Chris Burt, and other regular contributors.

Nearby

Air Quality

  Air Quality AQ Index Pollutant
Not available.

Snow Depth

Station Depth Elevation

Earthquake Activity

City Distance Mag. Time & Date
Minimum magnitude displayed is 2.5.

Coastal Water Temperatures

Place Temperature

Stations

Nearby Weather Stations

Station Location Temp. Windchill Dew Point Humidity Wind Precip. Elev Updated Type